sensor_id;sensor_type;location;lat;lon;timestamp;temperature;humidity
74822;DHT22;63353;48.702;8.884;2023-08-06T00:01:57;12.40;99.90
74822;DHT22;63353;48.702;8.884;2023-08-06T00:04:23;12.30;99.90
74822;DHT22;63353;48.702;8.884;2023-08-06T00:06:49;12.20;99.90
74822;DHT22;63353;48.702;8.884;2023-08-06T00:09:14;12.10;99.90
74822;DHT22;63353;48.702;8.884;2023-08-06T00:11:40;12.10;99.90
74822;DHT22;63353;48.702;8.884;2023-08-06T00:14:10;12.20;99.90
74822;DHT22;63353;48.702;8.884;2023-08-06T00:16:38;12.20;99.90
74822;DHT22;63353;48.702;8.884;2023-08-06T00:19:07;12.10;99.90
74822;DHT22;63353;48.702;8.884;2023-08-06T00:21:32;12.20;99.90
74822;DHT22;63353;48.702;8.884;2023-08-06T00:24:07;12.20;99.90
74822;DHT22;63353;48.702;8.884;2023-08-06T00:26:33;12.10;99.90
74822;DHT22;63353;48.702;8.884;2023-08-06T00:29:01;12.10;99.90
74822;DHT22;63353;48.702;8.884;2023-08-06T00:31:33;12.10;99.90
74822;DHT22;63353;48.702;8.884;2023-08-06T00:33:59;12.00;99.90
74822;DHT22;63353;48.702;8.884;2023-08-06T00:36:30;12.00;99.90
74822;DHT22;63353;48.702;8.884;2023-08-06T00:38:56;11.90;99.90
74822;DHT22;63353;48.702;8.884;2023-08-06T00:41:34;11.80;99.90
74822;DHT22;63353;48.702;8.884;2023-08-06T00:43:59;11.80;99.90
74822;DHT22;63353;48.702;8.884;2023-08-06T00:46:25;11.70;99.90
74822;DHT22;63353;48.702;8.884;2023-08-06T00:48:51;11.60;99.90
74822;DHT22;63353;48.702;8.884;2023-08-06T00:51:23;11.50;99.90
74822;DHT22;63353;48.702;8.884;2023-08-06T00:53:53;11.50;99.90
74822;DHT22;63353;48.702;8.884;2023-08-06T00:56:34;11.50;99.90
74822;DHT22;63353;48.702;8.884;2023-08-06T00:59:01;11.40;99.90
74822;DHT22;63353;48.702;8.884;2023-08-06T01:01:30;11.40;99.90
74822;DHT22;63353;48.702;8.884;2023-08-06T01:03:59;11.40;99.90
74822;DHT22;63353;48.702;8.884;2023-08-06T01:13:11;11.20;99.90
74822;DHT22;63353;48.702;8.884;2023-08-06T01:15:50;11.10;99.90
74822;DHT22;63353;48.702;8.884;2023-08-06T01:18:27;11.00;99.90
74822;DHT22;63353;48.702;8.884;2023-08-06T01:20:52;11.00;99.90
74822;DHT22;63353;48.702;8.884;2023-08-06T01:23:19;11.00;99.90
74822;DHT22;63353;48.702;8.884;2023-08-06T01:28:44;10.90;99.90
74822;DHT22;63353;48.702;8.884;2023-08-06T01:31:15;10.90;99.90
74822;DHT22;63353;48.702;8.884;2023-08-06T01:33:45;11.00;99.90
74822;DHT22;63353;48.702;8.884;2023-08-06T01:36:14;11.00;99.90
74822;DHT22;63353;48.702;8.884;2023-08-06T01:38:47;10.90;99.90
74822;DHT22;63353;48.702;8.884;2023-08-06T01:41:19;10.80;99.90
74822;DHT22;63353;48.702;8.884;2023-08-06T01:43:44;10.80;99.90
74822;DHT22;63353;48.702;8.884;2023-08-06T01:46:16;10.70;99.90
74822;DHT22;63353;48.702;8.884;2023-08-06T01:48:42;10.70;99.90
74822;DHT22;63353;48.702;8.884;2023-08-06T01:51:07;10.60;99.90
74822;DHT22;63353;48.702;8.884;2023-08-06T01:53:42;10.70;99.90
74822;DHT22;63353;48.702;8.884;2023-08-06T01:56:08;10.70;99.90
74822;DHT22;63353;48.702;8.884;2023-08-06T01:58:34;10.70;99.90
74822;DHT22;63353;48.702;8.884;2023-08-06T02:01:01;10.70;99.90
74822;DHT22;63353;48.702;8.884;2023-08-06T02:03:30;10.60;99.90
74822;DHT22;63353;48.702;8.884;2023-08-06T02:05:55;10.60;99.90
74822;DHT22;63353;48.702;8.884;2023-08-06T02:08:24;10.60;99.90
74822;DHT22;63353;48.702;8.884;2023-08-06T02:10:50;10.60;99.90
74822;DHT22;63353;48.702;8.884;2023-08-06T02:13:15;10.70;99.90
74822;DHT22;63353;48.702;8.884;2023-08-06T02:15:45;10.70;99.90
74822;DHT22;63353;48.702;8.884;2023-08-06T02:18:13;10.70;99.90
74822;DHT22;63353;48.702;8.884;2023-08-06T02:21:15;10.70;99.90
74822;DHT22;63353;48.702;8.884;2023-08-06T02:23:44;10.80;99.90
74822;DHT22;63353;48.702;8.884;2023-08-06T02:26:19;10.80;99.90
74822;DHT22;63353;48.702;8.884;2023-08-06T02:28:50;10.90;99.90
74822;DHT22;63353;48.702;8.884;2023-08-06T02:31:19;11.10;99.90
74822;DHT22;63353;48.702;8.884;2023-08-06T02:33:53;11.20;99.90
74822;DHT22;63353;48.702;8.884;2023-08-06T02:36:25;11.40;99.90
74822;DHT22;63353;48.702;8.884;2023-08-06T02:38:54;11.40;99.90
74822;DHT22;63353;48.702;8.884;2023-08-06T02:41:20;11.40;99.90
74822;DHT22;63353;48.702;8.884;2023-08-06T02:43:46;11.40;99.90
74822;DHT22;63353;48.702;8.884;2023-08-06T02:46:14;11.40;99.90
74822;DHT22;63353;48.702;8.884;2023-08-06T02:48:43;11.40;99.90
74822;DHT22;63353;48.702;8.884;2023-08-06T02:51:08;11.40;99.90
74822;DHT22;63353;48.702;8.884;2023-08-06T02:53:34;11.40;99.90
74822;DHT22;63353;48.702;8.884;2023-08-06T02:56:12;11.50;99.90
74822;DHT22;63353;48.702;8.884;2023-08-06T02:58:37;11.50;99.90
74822;DHT22;63353;48.702;8.884;2023-08-06T03:01:04;11.60;99.90
74822;DHT22;63353;48.702;8.884;2023-08-06T03:03:31;11.70;99.90
74822;DHT22;63353;48.702;8.884;2023-08-06T03:06:00;11.80;99.90
74822;DHT22;63353;48.702;8.884;2023-08-06T03:08:32;12.00;99.90
74822;DHT22;63353;48.702;8.884;2023-08-06T03:10:57;11.90;99.90
74822;DHT22;63353;48.702;8.884;2023-08-06T03:13:32;12.00;99.90
74822;DHT22;63353;48.702;8.884;2023-08-06T03:15:59;12.10;99.90
74822;DHT22;63353;48.702;8.884;2023-08-06T03:18:30;12.10;99.90
74822;DHT22;63353;48.702;8.884;2023-08-06T03:20:59;12.10;99.90
74822;DHT22;63353;48.702;8.884;2023-08-06T03:23:28;12.10;99.90
74822;DHT22;63353;48.702;8.884;2023-08-06T03:25:53;12.10;99.90
74822;DHT22;63353;48.702;8.884;2023-08-06T03:28:19;12.10;99.90
74822;DHT22;63353;48.702;8.884;2023-08-06T03:30:45;12.10;99.90
74822;DHT22;63353;48.702;8.884;2023-08-06T03:33:14;12.20;99.90
74822;DHT22;63353;48.702;8.884;2023-08-06T03:35:40;12.20;99.90
74822;DHT22;63353;48.702;8.884;2023-08-06T03:38:05;12.20;99.90
74822;DHT22;63353;48.702;8.884;2023-08-06T03:40:40;12.10;99.90
74822;DHT22;63353;48.702;8.884;2023-08-06T03:43:08;12.10;99.90
74822;DHT22;63353;48.702;8.884;2023-08-06T03:45:34;12.10;99.90
74822;DHT22;63353;48.702;8.884;2023-08-06T03:48:00;12.10;99.90
74822;DHT22;63353;48.702;8.884;2023-08-06T03:50:25;12.00;99.90
74822;DHT22;63353;48.702;8.884;2023-08-06T03:52:57;12.10;99.90
74822;DHT22;63353;48.702;8.884;2023-08-06T03:55:26;12.10;99.90
74822;DHT22;63353;48.702;8.884;2023-08-06T03:57:55;12.00;99.90
74822;DHT22;63353;48.702;8.884;2023-08-06T04:00:23;12.00;99.90
74822;DHT22;63353;48.702;8.884;2023-08-06T04:02:55;12.00;99.90
74822;DHT22;63353;48.702;8.884;2023-08-06T04:05:27;12.00;99.90
74822;DHT22;63353;48.702;8.884;2023-08-06T04:08:04;11.90;99.90
74822;DHT22;63353;48.702;8.884;2023-08-06T04:10:30;11.90;99.90
74822;DHT22;63353;48.702;8.884;2023-08-06T04:13:02;11.90;99.90
74822;DHT22;63353;48.702;8.884;2023-08-06T04:15:28;11.90;99.90
74822;DHT22;63353;48.702;8.884;2023-08-06T04:17:59;12.00;99.90
74822;DHT22;63353;48.702;8.884;2023-08-06T04:20:25;12.20;99.90
74822;DHT22;63353;48.702;8.884;2023-08-06T04:22:54;12.20;99.90
74822;DHT22;63353;48.702;8.884;2023-08-06T04:25:21;12.30;99.90
74822;DHT22;63353;48.702;8.884;2023-08-06T04:27:49;12.40;99.90
74822;DHT22;63353;48.702;8.884;2023-08-06T04:30:15;12.40;99.90
74822;DHT22;63353;48.702;8.884;2023-08-06T04:32:44;12.40;99.90
74822;DHT22;63353;48.702;8.884;2023-08-06T04:35:10;12.40;99.90
74822;DHT22;63353;48.702;8.884;2023-08-06T04:37:35;12.40;99.90
74822;DHT22;63353;48.702;8.884;2023-08-06T04:40:04;12.40;99.90
74822;DHT22;63353;48.702;8.884;2023-08-06T04:42:34;12.30;99.90
74822;DHT22;63353;48.702;8.884;2023-08-06T04:45:01;12.30;99.90
74822;DHT22;63353;48.702;8.884;2023-08-06T04:47:27;12.40;99.90
74822;DHT22;63353;48.702;8.884;2023-08-06T04:49:53;12.30;99.90
74822;DHT22;63353;48.702;8.884;2023-08-06T04:52:19;12.30;99.90
74822;DHT22;63353;48.702;8.884;2023-08-06T04:54:57;12.40;99.90
74822;DHT22;63353;48.702;8.884;2023-08-06T04:57:26;12.40;99.90
74822;DHT22;63353;48.702;8.884;2023-08-06T04:59:57;12.40;99.90
74822;DHT22;63353;48.702;8.884;2023-08-06T05:02:23;12.40;99.90
74822;DHT22;63353;48.702;8.884;2023-08-06T05:05:07;12.40;99.90
74822;DHT22;63353;48.702;8.884;2023-08-06T05:07:36;12.50;99.90
74822;DHT22;63353;48.702;8.884;2023-08-06T05:10:02;12.60;99.90
74822;DHT22;63353;48.702;8.884;2023-08-06T05:12:40;12.60;99.90
74822;DHT22;63353;48.702;8.884;2023-08-06T05:15:06;12.80;99.90
74822;DHT22;63353;48.702;8.884;2023-08-06T05:17:38;12.90;99.90
74822;DHT22;63353;48.702;8.884;2023-08-06T05:20:07;12.80;99.90
74822;DHT22;63353;48.702;8.884;2023-08-06T05:22:39;12.90;99.90
74822;DHT22;63353;48.702;8.884;2023-08-06T05:25:08;12.90;99.90
74822;DHT22;63353;48.702;8.884;2023-08-06T05:27:43;12.90;99.90
74822;DHT22;63353;48.702;8.884;2023-08-06T05:30:09;12.90;99.90
74822;DHT22;63353;48.702;8.884;2023-08-06T05:32:35;12.80;99.90
74822;DHT22;63353;48.702;8.884;2023-08-06T05:35:04;12.80;99.90
74822;DHT22;63353;48.702;8.884;2023-08-06T05:37:30;12.80;99.90
74822;DHT22;63353;48.702;8.884;2023-08-06T05:40:05;12.80;99.90
74822;DHT22;63353;48.702;8.884;2023-08-06T05:42:37;12.80;99.90
74822;DHT22;63353;48.702;8.884;2023-08-06T05:45:03;12.80;99.90
74822;DHT22;63353;48.702;8.884;2023-08-06T05:47:29;12.70;99.90
74822;DHT22;63353;48.702;8.884;2023-08-06T05:50:00;12.70;99.90
74822;DHT22;63353;48.702;8.884;2023-08-06T05:52:29;12.70;99.90
74822;DHT22;63353;48.702;8.884;2023-08-06T05:54:57;12.80;99.90
74822;DHT22;63353;48.702;8.884;2023-08-06T05:57:23;12.70;99.90
74822;DHT22;63353;48.702;8.884;2023-08-06T05:59:55;12.70;99.90
74822;DHT22;63353;48.702;8.884;2023-08-06T06:02:23;12.80;99.90
74822;DHT22;63353;48.702;8.884;2023-08-06T06:04:52;12.80;99.90
74822;DHT22;63353;48.702;8.884;2023-08-06T06:07:23;12.90;99.90
74822;DHT22;63353;48.702;8.884;2023-08-06T06:09:49;12.80;99.90
74822;DHT22;63353;48.702;8.884;2023-08-06T06:12:15;12.90;99.90
74822;DHT22;63353;48.702;8.884;2023-08-06T06:14:50;12.90;99.90
74822;DHT22;63353;48.702;8.884;2023-08-06T06:17:15;13.00;99.90
74822;DHT22;63353;48.702;8.884;2023-08-06T06:19:44;13.10;99.90
74822;DHT22;63353;48.702;8.884;2023-08-06T06:22:09;13.10;99.90
74822;DHT22;63353;48.702;8.884;2023-08-06T06:24:38;13.20;99.90
74822;DHT22;63353;48.702;8.884;2023-08-06T06:27:04;13.20;99.90
74822;DHT22;63353;48.702;8.884;2023-08-06T06:29:30;13.20;99.90
74822;DHT22;63353;48.702;8.884;2023-08-06T06:32:01;13.30;99.90
74822;DHT22;63353;48.702;8.884;2023-08-06T06:34:30;13.30;99.90
74822;DHT22;63353;48.702;8.884;2023-08-06T06:36:55;13.30;99.90
74822;DHT22;63353;48.702;8.884;2023-08-06T06:39:24;13.40;99.90
74822;DHT22;63353;48.702;8.884;2023-08-06T06:41:49;13.20;99.90
74822;DHT22;63353;48.702;8.884;2023-08-06T06:44:27;13.20;99.90
74822;DHT22;63353;48.702;8.884;2023-08-06T06:46:53;13.20;99.90
74822;DHT22;63353;48.702;8.884;2023-08-06T06:49:25;13.00;99.90
74822;DHT22;63353;48.702;8.884;2023-08-06T06:51:50;12.90;99.90
74822;DHT22;63353;48.702;8.884;2023-08-06T06:54:16;12.90;99.90
74822;DHT22;63353;48.702;8.884;2023-08-06T06:56:42;12.80;99.90
74822;DHT22;63353;48.702;8.884;2023-08-06T06:59:10;12.80;99.90
74822;DHT22;63353;48.702;8.884;2023-08-06T07:01:42;12.90;99.90
74822;DHT22;63353;48.702;8.884;2023-08-06T07:04:11;12.90;99.90
74822;DHT22;63353;48.702;8.884;2023-08-06T07:06:43;13.00;99.90
74822;DHT22;63353;48.702;8.884;2023-08-06T07:09:14;13.00;99.90
74822;DHT22;63353;48.702;8.884;2023-08-06T07:11:48;13.00;99.90
74822;DHT22;63353;48.702;8.884;2023-08-06T07:14:17;13.20;99.90
74822;DHT22;63353;48.702;8.884;2023-08-06T07:16:42;13.10;99.90
74822;DHT22;63353;48.702;8.884;2023-08-06T07:19:08;13.10;99.90
74822;DHT22;63353;48.702;8.884;2023-08-06T07:21:34;13.10;99.90
74822;DHT22;63353;48.702;8.884;2023-08-06T07:24:08;13.10;99.90
74822;DHT22;63353;48.702;8.884;2023-08-06T07:26:37;13.30;99.90
74822;DHT22;63353;48.702;8.884;2023-08-06T07:29:05;13.30;99.90
74822;DHT22;63353;48.702;8.884;2023-08-06T07:31:31;13.30;99.90
74822;DHT22;63353;48.702;8.884;2023-08-06T07:33:57;13.30;99.90
74822;DHT22;63353;48.702;8.884;2023-08-06T07:36:28;13.10;99.90
74822;DHT22;63353;48.702;8.884;2023-08-06T07:38:57;13.00;99.90
74822;DHT22;63353;48.702;8.884;2023-08-06T07:41:23;13.20;99.90
74822;DHT22;63353;48.702;8.884;2023-08-06T07:43:49;13.10;99.90
74822;DHT22;63353;48.702;8.884;2023-08-06T07:46:24;13.10;99.90
74822;DHT22;63353;48.702;8.884;2023-08-06T07:48:58;13.20;99.90
74822;DHT22;63353;48.702;8.884;2023-08-06T07:51:24;13.40;99.90
74822;DHT22;63353;48.702;8.884;2023-08-06T07:54:01;13.80;99.90
74822;DHT22;63353;48.702;8.884;2023-08-06T07:56:30;14.00;99.90
74822;DHT22;63353;48.702;8.884;2023-08-06T07:58:55;14.10;99.90
74822;DHT22;63353;48.702;8.884;2023-08-06T08:01:21;13.80;99.90
74822;DHT22;63353;48.702;8.884;2023-08-06T08:03:50;13.70;99.90
74822;DHT22;63353;48.702;8.884;2023-08-06T08:06:18;13.70;99.90
74822;DHT22;63353;48.702;8.884;2023-08-06T08:08:44;13.80;99.90
74822;DHT22;63353;48.702;8.884;2023-08-06T08:11:20;13.80;99.90
74822;DHT22;63353;48.702;8.884;2023-08-06T08:13:49;13.70;99.90
74822;DHT22;63353;48.702;8.884;2023-08-06T08:16:14;13.60;99.90
74822;DHT22;63353;48.702;8.884;2023-08-06T08:18:40;13.60;99.90
74822;DHT22;63353;48.702;8.884;2023-08-06T08:21:09;13.50;99.90
74822;DHT22;63353;48.702;8.884;2023-08-06T08:23:37;13.50;99.90
74822;DHT22;63353;48.702;8.884;2023-08-06T08:26:04;13.30;99.90
74822;DHT22;63353;48.702;8.884;2023-08-06T08:28:36;13.20;99.90
74822;DHT22;63353;48.702;8.884;2023-08-06T08:31:08;13.20;99.90
74822;DHT22;63353;48.702;8.884;2023-08-06T08:33:34;13.20;99.90
74822;DHT22;63353;48.702;8.884;2023-08-06T08:36:03;13.50;99.90
74822;DHT22;63353;48.702;8.884;2023-08-06T08:38:32;13.60;99.90
74822;DHT22;63353;48.702;8.884;2023-08-06T08:40:57;13.40;99.90
74822;DHT22;63353;48.702;8.884;2023-08-06T08:43:40;13.40;99.90
74822;DHT22;63353;48.702;8.884;2023-08-06T08:46:21;13.60;99.90
74822;DHT22;63353;48.702;8.884;2023-08-06T08:49:08;13.50;99.90
74822;DHT22;63353;48.702;8.884;2023-08-06T08:51:43;13.50;99.90
74822;DHT22;63353;48.702;8.884;2023-08-06T08:54:13;13.50;99.90
74822;DHT22;63353;48.702;8.884;2023-08-06T08:56:40;13.60;99.90
74822;DHT22;63353;48.702;8.884;2023-08-06T08:59:10;13.70;99.90
74822;DHT22;63353;48.702;8.884;2023-08-06T09:01:40;13.80;99.90
74822;DHT22;63353;48.702;8.884;2023-08-06T09:04:08;13.90;99.90
74822;DHT22;63353;48.702;8.884;2023-08-06T09:06:37;14.10;99.90
74822;DHT22;63353;48.702;8.884;2023-08-06T09:09:09;14.20;99.90
74822;DHT22;63353;48.702;8.884;2023-08-06T09:11:43;14.20;99.90
74822;DHT22;63353;48.702;8.884;2023-08-06T09:14:10;14.10;99.90
74822;DHT22;63353;48.702;8.884;2023-08-06T09:16:36;14.10;99.90
74822;DHT22;63353;48.702;8.884;2023-08-06T09:19:12;14.20;99.90
74822;DHT22;63353;48.702;8.884;2023-08-06T09:21:51;14.20;99.90
74822;DHT22;63353;48.702;8.884;2023-08-06T09:24:17;14.10;99.90
74822;DHT22;63353;48.702;8.884;2023-08-06T09:26:49;14.10;99.90
74822;DHT22;63353;48.702;8.884;2023-08-06T09:29:14;14.00;99.90
74822;DHT22;63353;48.702;8.884;2023-08-06T09:31:53;14.10;99.90
74822;DHT22;63353;48.702;8.884;2023-08-06T09:34:23;14.20;99.90
74822;DHT22;63353;48.702;8.884;2023-08-06T09:36:52;14.20;99.90
74822;DHT22;63353;48.702;8.884;2023-08-06T09:39:28;14.10;99.90
74822;DHT22;63353;48.702;8.884;2023-08-06T09:42:06;14.00;99.90
74822;DHT22;63353;48.702;8.884;2023-08-06T09:44:33;14.10;99.90
74822;DHT22;63353;48.702;8.884;2023-08-06T09:47:01;14.00;99.90
74822;DHT22;63353;48.702;8.884;2023-08-06T09:51:59;14.00;99.90
74822;DHT22;63353;48.702;8.884;2023-08-06T09:54:26;14.00;99.90
74822;DHT22;63353;48.702;8.884;2023-08-06T09:56:56;14.00;99.90
74822;DHT22;63353;48.702;8.884;2023-08-06T09:59:25;14.00;99.90
74822;DHT22;63353;48.702;8.884;2023-08-06T10:01:58;14.10;99.90
74822;DHT22;63353;48.702;8.884;2023-08-06T10:04:29;14.20;99.90
74822;DHT22;63353;48.702;8.884;2023-08-06T10:06:54;14.40;99.90
74822;DHT22;63353;48.702;8.884;2023-08-06T10:09:20;14.50;99.90
74822;DHT22;63353;48.702;8.884;2023-08-06T10:11:56;14.40;99.90
74822;DHT22;63353;48.702;8.884;2023-08-06T10:14:29;14.30;99.90
74822;DHT22;63353;48.702;8.884;2023-08-06T10:16:59;14.20;99.90
74822;DHT22;63353;48.702;8.884;2023-08-06T10:19:29;14.30;99.90
74822;DHT22;63353;48.702;8.884;2023-08-06T10:22:15;14.20;99.90
74822;DHT22;63353;48.702;8.884;2023-08-06T10:24:57;14.00;99.90
74822;DHT22;63353;48.702;8.884;2023-08-06T10:27:35;13.90;99.90
74822;DHT22;63353;48.702;8.884;2023-08-06T10:30:32;13.90;99.90
74822;DHT22;63353;48.702;8.884;2023-08-06T10:33:02;13.90;99.90
74822;DHT22;63353;48.702;8.884;2023-08-06T10:35:42;13.90;99.90
74822;DHT22;63353;48.702;8.884;2023-08-06T10:38:22;14.00;99.90
74822;DHT22;63353;48.702;8.884;2023-08-06T10:43:26;14.20;99.90
74822;DHT22;63353;48.702;8.884;2023-08-06T10:45:57;14.10;99.90
74822;DHT22;63353;48.702;8.884;2023-08-06T10:48:41;14.00;99.90
74822;DHT22;63353;48.702;8.884;2023-08-06T10:51:14;14.00;99.90
74822;DHT22;63353;48.702;8.884;2023-08-06T10:53:55;13.90;99.90
74822;DHT22;63353;48.702;8.884;2023-08-06T10:56:40;14.00;99.90
74822;DHT22;63353;48.702;8.884;2023-08-06T10:59:06;14.00;99.90
74822;DHT22;63353;48.702;8.884;2023-08-06T11:01:33;14.10;99.90
74822;DHT22;63353;48.702;8.884;2023-08-06T11:04:02;14.20;99.90
74822;DHT22;63353;48.702;8.884;2023-08-06T11:06:31;14.30;99.90
74822;DHT22;63353;48.702;8.884;2023-08-06T11:08:56;14.20;99.90
74822;DHT22;63353;48.702;8.884;2023-08-06T11:11:25;14.20;99.90
74822;DHT22;63353;48.702;8.884;2023-08-06T11:13:51;14.10;99.90
74822;DHT22;63353;48.702;8.884;2023-08-06T11:16:19;14.10;99.90
74822;DHT22;63353;48.702;8.884;2023-08-06T11:18:48;14.20;99.90
74822;DHT22;63353;48.702;8.884;2023-08-06T11:21:23;14.10;99.90
74822;DHT22;63353;48.702;8.884;2023-08-06T11:24:00;14.10;99.90
74822;DHT22;63353;48.702;8.884;2023-08-06T11:26:29;14.20;99.90
74822;DHT22;63353;48.702;8.884;2023-08-06T11:28:58;14.30;99.90
74822;DHT22;63353;48.702;8.884;2023-08-06T11:31:23;14.30;99.90
74822;DHT22;63353;48.702;8.884;2023-08-06T11:33:53;14.20;99.90
74822;DHT22;63353;48.702;8.884;2023-08-06T11:36:33;14.00;99.90
74822;DHT22;63353;48.702;8.884;2023-08-06T11:38:59;13.90;99.90
74822;DHT22;63353;48.702;8.884;2023-08-06T11:41:29;14.10;99.90
74822;DHT22;63353;48.702;8.884;2023-08-06T11:43:55;14.00;99.90
74822;DHT22;63353;48.702;8.884;2023-08-06T11:46:24;14.20;99.90
74822;DHT22;63353;48.702;8.884;2023-08-06T11:48:59;14.40;99.90
74822;DHT22;63353;48.702;8.884;2023-08-06T11:51:34;14.60;99.90
74822;DHT22;63353;48.702;8.884;2023-08-06T11:54:03;14.70;99.90
74822;DHT22;63353;48.702;8.884;2023-08-06T11:56:32;14.70;99.90
74822;DHT22;63353;48.702;8.884;2023-08-06T11:59:03;14.30;99.90
74822;DHT22;63353;48.702;8.884;2023-08-06T12:01:32;14.30;99.90
74822;DHT22;63353;48.702;8.884;2023-08-06T12:04:04;14.30;99.90
74822;DHT22;63353;48.702;8.884;2023-08-06T12:06:43;14.10;99.90
74822;DHT22;63353;48.702;8.884;2023-08-06T12:09:12;14.10;99.90
74822;DHT22;63353;48.702;8.884;2023-08-06T12:11:40;14.10;99.90
74822;DHT22;63353;48.702;8.884;2023-08-06T12:14:18;14.10;99.90
74822;DHT22;63353;48.702;8.884;2023-08-06T12:16:50;14.20;99.90
74822;DHT22;63353;48.702;8.884;2023-08-06T12:19:15;14.30;99.90
74822;DHT22;63353;48.702;8.884;2023-08-06T12:21:44;14.10;99.90
74822;DHT22;63353;48.702;8.884;2023-08-06T12:24:09;14.10;99.90
74822;DHT22;63353;48.702;8.884;2023-08-06T12:26:35;14.30;99.90
74822;DHT22;63353;48.702;8.884;2023-08-06T12:29:04;14.30;99.90
74822;DHT22;63353;48.702;8.884;2023-08-06T12:31:30;14.20;99.90
74822;DHT22;63353;48.702;8.884;2023-08-06T12:33:55;14.00;99.90
74822;DHT22;63353;48.702;8.884;2023-08-06T12:36:21;13.80;99.90
74822;DHT22;63353;48.702;8.884;2023-08-06T12:38:50;13.90;99.90
74822;DHT22;63353;48.702;8.884;2023-08-06T12:41:15;14.00;99.90
74822;DHT22;63353;48.702;8.884;2023-08-06T12:43:41;14.00;99.90
74822;DHT22;63353;48.702;8.884;2023-08-06T12:46:10;14.20;99.90
74822;DHT22;63353;48.702;8.884;2023-08-06T12:48:35;14.20;99.90
74822;DHT22;63353;48.702;8.884;2023-08-06T12:51:04;14.30;99.90
74822;DHT22;63353;48.702;8.884;2023-08-06T12:53:30;14.30;99.90
74822;DHT22;63353;48.702;8.884;2023-08-06T12:55:58;14.30;99.90
74822;DHT22;63353;48.702;8.884;2023-08-06T12:58:24;14.20;99.90
74822;DHT22;63353;48.702;8.884;2023-08-06T13:00:55;14.30;99.90
74822;DHT22;63353;48.702;8.884;2023-08-06T13:03:36;14.60;99.90
74822;DHT22;63353;48.702;8.884;2023-08-06T13:06:02;14.90;99.90
74822;DHT22;63353;48.702;8.884;2023-08-06T13:08:28;15.20;99.90
74822;DHT22;63353;48.702;8.884;2023-08-06T13:10:56;15.20;99.90
74822;DHT22;63353;48.702;8.884;2023-08-06T13:13:34;15.70;99.90
74822;DHT22;63353;48.702;8.884;2023-08-06T13:16:03;16.10;99.90
74822;DHT22;63353;48.702;8.884;2023-08-06T13:18:32;16.00;99.90
74822;DHT22;63353;48.702;8.884;2023-08-06T13:20:58;15.90;99.90
74822;DHT22;63353;48.702;8.884;2023-08-06T13:23:23;15.80;99.90
74822;DHT22;63353;48.702;8.884;2023-08-06T13:25:53;15.40;99.90
74822;DHT22;63353;48.702;8.884;2023-08-06T13:28:22;15.40;99.90
74822;DHT22;63353;48.702;8.884;2023-08-06T13:30:57;15.40;99.90
74822;DHT22;63353;48.702;8.884;2023-08-06T13:33:22;15.50;99.90
74822;DHT22;63353;48.702;8.884;2023-08-06T13:35:48;15.80;99.90
74822;DHT22;63353;48.702;8.884;2023-08-06T13:38:24;16.00;99.90
74822;DHT22;63353;48.702;8.884;2023-08-06T13:40:49;16.00;99.90
74822;DHT22;63353;48.702;8.884;2023-08-06T13:43:15;16.00;99.90
74822;DHT22;63353;48.702;8.884;2023-08-06T13:45:48;16.30;99.90
74822;DHT22;63353;48.702;8.884;2023-08-06T13:48:14;16.30;99.90
74822;DHT22;63353;48.702;8.884;2023-08-06T13:50:42;16.00;99.90
74822;DHT22;63353;48.702;8.884;2023-08-06T13:53:20;15.50;99.90
74822;DHT22;63353;48.702;8.884;2023-08-06T13:55:52;15.00;99.90
74822;DHT22;63353;48.702;8.884;2023-08-06T13:58:17;14.60;99.90
74822;DHT22;63353;48.702;8.884;2023-08-06T14:00:43;14.70;99.90
74822;DHT22;63353;48.702;8.884;2023-08-06T14:03:27;14.50;99.90
74822;DHT22;63353;48.702;8.884;2023-08-06T14:06:02;14.50;99.90
74822;DHT22;63353;48.702;8.884;2023-08-06T14:08:34;14.50;99.90
74822;DHT22;63353;48.702;8.884;2023-08-06T14:11:18;14.60;99.90
74822;DHT22;63353;48.702;8.884;2023-08-06T14:13:58;14.20;99.90
74822;DHT22;63353;48.702;8.884;2023-08-06T14:16:34;14.00;99.90
74822;DHT22;63353;48.702;8.884;2023-08-06T14:19:03;13.90;99.90
74822;DHT22;63353;48.702;8.884;2023-08-06T14:21:29;13.70;99.90
74822;DHT22;63353;48.702;8.884;2023-08-06T14:24:13;13.70;99.90
74822;DHT22;63353;48.702;8.884;2023-08-06T14:26:45;13.90;99.90
74822;DHT22;63353;48.702;8.884;2023-08-06T14:29:14;13.90;99.90
74822;DHT22;63353;48.702;8.884;2023-08-06T14:31:42;14.10;99.90
74822;DHT22;63353;48.702;8.884;2023-08-06T14:34:14;14.00;99.90
74822;DHT22;63353;48.702;8.884;2023-08-06T14:36:42;14.00;99.90
74822;DHT22;63353;48.702;8.884;2023-08-06T14:39:14;14.20;99.90
74822;DHT22;63353;48.702;8.884;2023-08-06T14:41:45;14.80;99.90
74822;DHT22;63353;48.702;8.884;2023-08-06T14:44:17;14.90;99.90
74822;DHT22;63353;48.702;8.884;2023-08-06T14:46:42;14.80;99.90
74822;DHT22;63353;48.702;8.884;2023-08-06T14:49:08;14.70;99.90
74822;DHT22;63353;48.702;8.884;2023-08-06T14:51:34;14.40;99.90
74822;DHT22;63353;48.702;8.884;2023-08-06T14:53:59;14.20;99.90
74822;DHT22;63353;48.702;8.884;2023-08-06T14:56:25;14.10;99.90
74822;DHT22;63353;48.702;8.884;2023-08-06T14:58:56;13.80;99.90
74822;DHT22;63353;48.702;8.884;2023-08-06T15:01:25;13.90;99.90
74822;DHT22;63353;48.702;8.884;2023-08-06T15:03:51;13.70;99.90
74822;DHT22;63353;48.702;8.884;2023-08-06T15:06:19;13.70;99.90
74822;DHT22;63353;48.702;8.884;2023-08-06T15:08:48;13.50;99.90
74822;DHT22;63353;48.702;8.884;2023-08-06T15:11:14;13.60;99.90
74822;DHT22;63353;48.702;8.884;2023-08-06T15:13:43;14.60;99.90
74822;DHT22;63353;48.702;8.884;2023-08-06T15:16:08;14.80;99.90
74822;DHT22;63353;48.702;8.884;2023-08-06T15:18:34;15.10;99.90
74822;DHT22;63353;48.702;8.884;2023-08-06T15:21:03;16.40;99.90
74822;DHT22;63353;48.702;8.884;2023-08-06T15:23:32;17.50;99.90
74822;DHT22;63353;48.702;8.884;2023-08-06T15:26:12;17.70;99.90
74822;DHT22;63353;48.702;8.884;2023-08-06T15:28:38;17.60;99.90
74822;DHT22;63353;48.702;8.884;2023-08-06T15:31:07;17.40;99.90
74822;DHT22;63353;48.702;8.884;2023-08-06T15:33:34;17.70;99.90
74822;DHT22;63353;48.702;8.884;2023-08-06T15:36:00;17.90;99.90
74822;DHT22;63353;48.702;8.884;2023-08-06T15:38:26;17.50;99.90
74822;DHT22;63353;48.702;8.884;2023-08-06T15:40:53;17.90;99.90
74822;DHT22;63353;48.702;8.884;2023-08-06T15:43:32;18.20;99.90
74822;DHT22;63353;48.702;8.884;2023-08-06T15:45:59;17.10;99.90
74822;DHT22;63353;48.702;8.884;2023-08-06T15:48:28;16.50;99.90
74822;DHT22;63353;48.702;8.884;2023-08-06T15:50:57;15.90;99.90
74822;DHT22;63353;48.702;8.884;2023-08-06T15:53:33;15.40;99.90
74822;DHT22;63353;48.702;8.884;2023-08-06T15:56:08;15.00;99.90
74822;DHT22;63353;48.702;8.884;2023-08-06T15:58:37;14.80;99.90
74822;DHT22;63353;48.702;8.884;2023-08-06T16:01:05;14.70;99.90